createdAt,value
2018-02-05T21:57:48.603Z,22.19
2018-02-05T21:58:48.557Z,22.13
2018-02-05T22:00:41.761Z,21.69
2018-02-05T22:01:41.711Z,21.46
2018-02-05T22:03:34.855Z,21.39
2018-02-05T22:04:34.871Z,21.39
2018-02-05T22:05:34.911Z,21.27
2018-02-05T22:06:34.942Z,21.30
2018-02-05T22:07:34.977Z,21.27
2018-02-05T22:08:35.013Z,21.30
2018-02-05T22:09:35.049Z,21.30
2018-02-05T22:10:35.086Z,21.09
2018-02-05T22:11:35.119Z,21.11
2018-02-05T22:12:35.152Z,21.05
2018-02-05T22:13:35.192Z,21.11
2018-02-05T22:14:35.226Z,21.06
2018-02-05T22:15:35.264Z,21.13
2018-02-05T22:16:35.296Z,21.09
2018-02-05T22:17:35.341Z,21.04
2018-02-05T22:18:35.375Z,21.02
2018-02-05T22:19:35.416Z,20.98
2018-02-05T22:20:35.440Z,21.06
2018-02-05T22:21:35.486Z,21.01
2018-02-05T22:22:35.524Z,20.93
2018-02-05T22:23:35.553Z,20.91
2018-02-05T22:24:35.586Z,20.96
2018-02-05T22:25:35.624Z,20.96
2018-02-05T22:26:35.657Z,20.98
2018-02-05T22:27:35.714Z,20.87
2018-02-05T22:28:35.735Z,20.84
2018-02-05T22:29:35.770Z,20.89
2018-02-05T22:30:35.809Z,20.90
2018-02-05T22:31:35.845Z,20.87
2018-02-05T22:32:35.878Z,20.83
2018-02-05T22:33:35.916Z,20.79
2018-02-05T22:34:35.945Z,20.74
2018-02-05T22:35:35.988Z,20.74
2018-02-05T22:36:36.023Z,20.81
2018-02-05T22:37:36.062Z,20.77
2018-02-05T22:38:36.101Z,20.66
2018-02-05T22:39:36.137Z,20.68
2018-02-05T22:40:36.162Z,20.76
2018-02-05T22:41:36.216Z,20.61
2018-02-05T22:42:37.136Z,20.61
2018-02-05T22:43:36.282Z,20.64
2018-02-05T22:44:36.323Z,20.68
2018-02-05T22:45:36.357Z,20.65
2018-02-05T22:46:36.404Z,20.61
2018-02-05T22:47:36.434Z,20.61
2018-02-05T22:48:36.466Z,20.58
2018-02-05T22:49:36.513Z,20.62
2018-02-05T22:50:36.536Z,20.66
2018-02-05T22:51:36.575Z,20.64
2018-02-05T22:52:36.610Z,20.66
2018-02-05T22:53:36.651Z,20.56
2018-02-05T22:54:36.688Z,20.51
2018-02-05T22:55:36.725Z,20.50
2018-02-05T22:56:36.759Z,20.50
2018-02-05T22:57:36.805Z,20.54
2018-02-05T22:58:36.833Z,20.47
2018-02-05T22:59:36.869Z,20.54
2018-02-05T23:00:36.906Z,20.43
2018-02-05T23:01:36.941Z,20.47
2018-02-05T23:02:36.976Z,20.49
2018-02-05T23:03:37.018Z,20.46
2018-02-05T23:04:37.058Z,20.56
2018-02-05T23:05:37.093Z,20.49
2018-02-05T23:06:37.129Z,20.43
2018-02-05T23:07:37.163Z,20.47
2018-02-05T23:08:37.203Z,20.39
2018-02-05T23:09:37.237Z,20.41
2018-02-05T23:10:37.277Z,20.42
2018-02-05T23:11:37.310Z,20.43
2018-02-05T23:12:37.355Z,20.42
2018-02-05T23:13:37.386Z,20.31
2018-02-05T23:14:37.415Z,20.31
2018-02-05T23:15:37.456Z,20.30
2018-02-05T23:16:37.501Z,20.27
2018-02-05T23:17:37.528Z,20.31
2018-02-05T23:18:37.565Z,20.28
2018-02-05T23:19:37.604Z,20.34
2018-02-05T23:20:37.636Z,20.38
2018-02-05T23:21:37.680Z,20.34
2018-02-05T23:22:37.715Z,20.34
2018-02-05T23:23:37.761Z,20.30
2018-02-05T23:24:37.783Z,20.33
2018-02-05T23:25:37.863Z,20.34
2018-02-05T23:26:37.858Z,20.33
2018-02-05T23:27:37.899Z,20.27
2018-02-05T23:28:37.934Z,20.30
2018-02-05T23:29:37.983Z,20.31
2018-02-05T23:30:38.014Z,20.31
2018-02-05T23:31:38.043Z,20.28
2018-02-05T23:32:38.080Z,20.28
2018-02-05T23:33:38.119Z,20.23
2018-02-05T23:34:38.150Z,20.24
2018-02-05T23:35:38.190Z,20.27
2018-02-05T23:36:38.214Z,20.23
2018-02-05T23:37:38.273Z,20.28
2018-02-05T23:38:38.372Z,20.27
2018-02-05T23:39:38.333Z,20.28
2018-02-05T23:40:38.375Z,20.30
2018-02-05T23:41:38.416Z,20.33
2018-02-05T23:42:38.444Z,20.25
2018-02-05T23:43:38.483Z,20.27
2018-02-05T23:44:38.520Z,20.33
2018-02-05T23:45:38.560Z,20.27
2018-02-05T23:46:38.590Z,20.33
2018-02-05T23:47:38.633Z,20.24
2018-02-05T23:48:38.676Z,20.30
2018-02-05T23:49:38.699Z,20.27
2018-02-05T23:50:38.747Z,20.20
2018-02-05T23:51:38.764Z,20.27
2018-02-05T23:52:38.809Z,20.13
2018-02-05T23:53:38.864Z,20.25
2018-02-05T23:54:38.877Z,20.21
2018-02-05T23:55:38.920Z,20.21
2018-02-05T23:56:38.959Z,20.23
2018-02-05T23:57:38.992Z,20.24
2018-02-05T23:58:39.033Z,20.24
2018-02-05T23:59:39.069Z,20.24
